createdAt,value
2019-03-01T00:02:05.712Z,100648.61
2019-03-01T00:04:50.433Z,100651.56
2019-03-01T00:07:57.634Z,100659.51
2019-03-01T00:10:33.246Z,100663.31
2019-03-01T00:13:18.144Z,100669.22
2019-03-01T00:15:53.364Z,100672.58
2019-03-01T00:18:26.078Z,100685.56
2019-03-01T00:21:01.477Z,100677.63
2019-03-01T00:24:00.549Z,100673.86
2019-03-01T00:26:54.445Z,100682.18
2019-03-01T00:29:39.188Z,100681.34
2019-03-01T00:32:31.584Z,100675.45
2019-03-01T00:35:27.236Z,100673.27
2019-03-01T00:38:02.632Z,100659.77
2019-03-01T00:40:53.287Z,100667.14
2019-03-01T00:43:43.782Z,100664.53
2019-03-01T00:46:13.407Z,100664.06
2019-03-01T00:48:43.032Z,100668.19
2019-03-01T00:51:13.937Z,100670.23
2019-03-01T00:53:43.623Z,100675.71
2019-03-01T00:56:13.249Z,100681.20
2019-03-01T00:58:44.518Z,100672.89
2019-03-01T01:01:15.133Z,100679.17
2019-03-01T01:03:46.132Z,100675.45
2019-03-01T01:06:15.932Z,100675.88
2019-03-01T01:08:45.653Z,100673.78
2019-03-01T01:14:03.859Z,100677.96
2019-03-01T01:16:33.475Z,100673.31
2019-03-01T01:19:03.100Z,100672.07
2019-03-01T01:21:34.731Z,100673.33
2019-03-01T01:24:04.427Z,100668.70
2019-03-01T01:26:34.115Z,100670.81
2019-03-01T01:29:03.774Z,100672.12
2019-03-01T01:31:33.406Z,100668.41
2019-03-01T01:34:05.923Z,100671.76
2019-03-01T01:36:35.937Z,100673.94
2019-03-01T01:39:07.862Z,100675.20
2019-03-01T01:41:37.760Z,100680.68
2019-03-01T01:44:07.413Z,100680.73
2019-03-01T01:46:37.114Z,100684.16
2019-03-01T01:49:06.867Z,100681.30
2019-03-01T01:51:36.629Z,100684.35
2019-03-01T01:54:06.400Z,100688.58
2019-03-01T01:56:36.149Z,100683.98
2019-03-01T01:59:06.170Z,100683.19
2019-03-01T02:01:35.911Z,100683.62
2019-03-01T02:04:05.655Z,100682.91
2019-03-01T02:06:35.483Z,100683.00
2019-03-01T02:09:08.248Z,100688.14
2019-03-01T02:11:37.871Z,100681.96
2019-03-01T02:14:07.925Z,100686.63
2019-03-01T02:16:37.554Z,100689.17
2019-03-01T02:19:07.347Z,100686.78
2019-03-01T02:21:37.978Z,100681.85
2019-03-01T02:24:07.615Z,100686.55
2019-03-01T02:26:37.241Z,100684.50
2019-03-01T02:29:07.438Z,100692.05
2019-03-01T02:31:37.810Z,100692.08
2019-03-01T02:34:07.437Z,100698.72
2019-03-01T02:36:38.089Z,100698.69
2019-03-01T02:39:07.952Z,100696.11
2019-03-01T02:41:38.444Z,100696.95
2019-03-01T02:44:08.214Z,100704.45
2019-03-01T02:46:37.845Z,100705.29
2019-03-01T02:49:07.458Z,100704.45
2019-03-01T02:51:37.117Z,100707.38
2019-03-01T02:54:06.803Z,100711.58
2019-03-01T02:56:36.607Z,100705.78
2019-03-01T02:59:06.859Z,100716.27
2019-03-01T03:01:36.484Z,100725.06
2019-03-01T03:04:06.109Z,100718.39
2019-03-01T03:06:40.375Z,100728.41
2019-03-01T03:09:10.603Z,100726.77
2019-03-01T03:11:40.235Z,100726.38
2019-03-01T03:14:10.179Z,100719.28
2019-03-01T03:16:40.774Z,100719.73
2019-03-01T03:19:10.396Z,100722.63
2019-03-01T03:21:40.056Z,100720.50
2019-03-01T03:24:09.754Z,100715.44
2019-03-01T03:26:39.370Z,100712.06
2019-03-01T03:29:09.438Z,100709.95
2019-03-01T03:31:40.759Z,100713.25
2019-03-01T03:34:10.870Z,100719.99
2019-03-01T03:36:41.104Z,100718.77
2019-03-01T03:39:12.188Z,100715.44
2019-03-01T03:41:42.474Z,100718.81
2019-03-01T03:44:12.250Z,100727.59
2019-03-01T03:46:41.858Z,100733.47
2019-03-01T03:49:11.480Z,100733.08
2019-03-01T03:51:41.298Z,100738.11
2019-03-01T03:54:11.883Z,100741.48
2019-03-01T03:56:41.523Z,100742.34
2019-03-01T03:59:11.553Z,100744.87
2019-03-01T04:01:41.187Z,100733.19
2019-03-01T04:04:11.955Z,100738.20
2019-03-01T04:06:42.247Z,100741.95
2019-03-01T04:09:12.845Z,100743.23
2019-03-01T04:11:43.653Z,100750.29
2019-03-01T04:14:13.323Z,100750.27
2019-03-01T04:16:43.203Z,100756.08
2019-03-01T04:19:13.130Z,100754.80
2019-03-01T04:21:42.820Z,100752.70
2019-03-01T04:24:12.467Z,100753.16
2019-03-01T04:26:42.071Z,100756.10
2019-03-01T04:29:11.729Z,100760.66
2019-03-01T04:31:41.681Z,100766.87
2019-03-01T04:34:12.098Z,100773.93
2019-03-01T04:36:41.754Z,100760.55
2019-03-01T04:39:11.373Z,100771.36
2019-03-01T04:41:41.065Z,100765.91
2019-03-01T04:44:10.743Z,100769.64
2019-03-01T04:46:40.362Z,100776.73
2019-03-01T04:49:09.979Z,100776.70
2019-03-01T04:51:41.210Z,100780.43
2019-03-01T04:54:10.860Z,100776.67
2019-03-01T04:56:40.547Z,100776.28
2019-03-01T04:59:10.341Z,100769.22
2019-03-01T05:01:39.973Z,100766.30
2019-03-01T05:04:09.594Z,100767.97
2019-03-01T05:06:40.152Z,100772.11
2019-03-01T05:09:10.043Z,100775.33
2019-03-01T05:11:41.310Z,100774.44
2019-03-01T05:14:12.645Z,100777.77
2019-03-01T05:16:42.277Z,100788.20
2019-03-01T05:19:12.567Z,100792.80
2019-03-01T05:21:42.299Z,100797.00
2019-03-01T05:24:12.040Z,100789.13
2019-03-01T05:26:41.667Z,100790.47
2019-03-01T05:29:12.521Z,100794.25
2019-03-01T05:31:42.138Z,100793.06
2019-03-01T05:34:11.863Z,100795.98
2019-03-01T05:36:41.519Z,100795.59
2019-03-01T05:39:11.410Z,100797.26
2019-03-01T05:41:41.159Z,100801.46
2019-03-01T05:44:10.821Z,100796.87
2019-03-01T05:46:40.451Z,100793.09
2019-03-01T05:49:10.078Z,100794.78
2019-03-01T05:51:39.862Z,100789.75
2019-03-01T05:54:09.499Z,100794.73
2019-03-01T05:56:39.196Z,100794.28
2019-03-01T05:59:17.519Z,100798.91
2019-03-01T06:01:53.075Z,100796.40
2019-03-01T06:04:26.926Z,100796.78
2019-03-01T06:07:17.959Z,100805.08
2019-03-01T06:09:53.236Z,100807.11
2019-03-01T06:12:47.349Z,100808.75
2019-03-01T06:15:36.749Z,100804.96
2019-03-01T06:18:28.863Z,100813.70
2019-03-01T06:21:25.630Z,100813.63
2019-03-01T06:24:03.894Z,100811.06
2019-03-01T06:27:02.351Z,100819.38
2019-03-01T06:29:41.755Z,100824.78
2019-03-01T06:32:18.663Z,100830.14
2019-03-01T06:34:57.077Z,100825.09
2019-03-01T06:37:55.621Z,100821.30
2019-03-01T06:40:35.743Z,100821.23
2019-03-01T06:43:26.400Z,100829.59
2019-03-01T06:46:05.515Z,100836.66
2019-03-01T06:48:43.524Z,100839.16
2019-03-01T06:51:14.791Z,100842.05
2019-03-01T06:53:44.417Z,100840.31
2019-03-01T06:56:14.086Z,100842.36
2019-03-01T06:58:43.716Z,100842.74
2019-03-01T07:01:20.816Z,100845.56
2019-03-01T07:07:39.608Z,100846.48
2019-03-01T07:14:09.845Z,100854.21
2019-03-01T07:16:39.468Z,100862.02
2019-03-01T07:19:09.100Z,100857.72
2019-03-01T07:21:38.954Z,100860.96
2019-03-01T07:24:09.332Z,100849.53
2019-03-01T07:26:39.819Z,100853.18
2019-03-01T07:29:09.603Z,100852.19
2019-03-01T07:31:39.294Z,100853.67
2019-03-01T07:34:08.934Z,100858.53
2019-03-01T07:36:38.612Z,100861.30
2019-03-01T07:39:09.884Z,100858.66
2019-03-01T07:41:39.516Z,100861.47
2019-03-01T07:44:09.491Z,100864.66
2019-03-01T07:46:39.128Z,100865.80
2019-03-01T07:49:08.760Z,100865.67
2019-03-01T07:51:38.424Z,100870.64
2019-03-01T07:54:08.050Z,100870.09
2019-03-01T07:56:39.927Z,100875.07
2019-03-01T07:59:09.353Z,100871.64
2019-03-01T08:01:38.983Z,100876.13
2019-03-01T08:04:10.254Z,100881.02
2019-03-01T08:06:39.916Z,100882.21
2019-03-01T08:09:13.317Z,100880.89
2019-03-01T08:11:42.931Z,100880.91
2019-03-01T08:14:13.387Z,100881.86
2019-03-01T08:16:44.393Z,100881.81
2019-03-01T08:19:17.045Z,100888.37
2019-03-01T08:21:47.508Z,100891.13
2019-03-01T08:24:16.835Z,100896.02
2019-03-01T08:26:46.557Z,100901.20
2019-03-01T08:29:17.474Z,100905.09
2019-03-01T08:31:47.378Z,100901.97
2019-03-01T08:34:17.790Z,100904.75
2019-03-01T08:36:48.440Z,100899.48
2019-03-01T08:39:18.074Z,100908.06
2019-03-01T08:41:47.699Z,100905.27
2019-03-01T08:44:19.316Z,100914.66
2019-03-01T08:46:48.716Z,100916.95
2019-03-01T08:49:18.343Z,100916.22
2019-03-01T08:51:47.984Z,100919.16
2019-03-01T08:54:17.691Z,100914.16
2019-03-01T08:56:50.283Z,100923.05
2019-03-01T08:59:18.953Z,100925.67
2019-03-01T09:01:48.675Z,100923.22
2019-03-01T09:04:21.380Z,100932.22
2019-03-01T09:06:50.299Z,100938.59
2019-03-01T09:09:20.899Z,100931.13
2019-03-01T09:11:51.479Z,100937.23
2019-03-01T09:14:22.713Z,100942.82
2019-03-01T09:16:52.467Z,100942.98
2019-03-01T09:19:25.247Z,100951.95
2019-03-01T09:21:54.011Z,100954.56
2019-03-01T09:24:25.721Z,100961.77
2019-03-01T09:26:55.978Z,100962.25
2019-03-01T09:29:26.233Z,100962.19
2019-03-01T09:31:57.883Z,100959.36
2019-03-01T09:34:32.030Z,100956.98
2019-03-01T09:37:00.265Z,100960.81
2019-03-01T09:39:32.532Z,100960.88
2019-03-01T09:42:04.398Z,100960.51
2019-03-01T09:44:34.609Z,100957.30
2019-03-01T09:47:04.738Z,100962.48
2019-03-01T09:49:34.556Z,100964.77
2019-03-01T09:52:04.505Z,100961.94
2019-03-01T09:54:34.780Z,100956.45
2019-03-01T09:57:06.959Z,100960.02
2019-03-01T09:59:36.694Z,100964.03
2019-03-01T10:02:06.309Z,100965.94
2019-03-01T10:04:37.484Z,100971.20
2019-03-01T10:07:09.487Z,100967.55
2019-03-01T10:09:40.043Z,100969.05
2019-03-01T10:12:10.130Z,100976.20
2019-03-01T10:14:40.050Z,100980.53
2019-03-01T10:17:10.862Z,100978.59
2019-03-01T10:19:40.675Z,100976.09
2019-03-01T10:22:10.997Z,100978.89
2019-03-01T10:24:41.188Z,100976.50
2019-03-01T10:27:12.665Z,100979.95
2019-03-01T10:29:42.348Z,100978.81
2019-03-01T10:32:12.592Z,100984.49
2019-03-01T10:34:43.483Z,100987.64
2019-03-01T10:37:13.129Z,100988.57
2019-03-01T10:39:42.742Z,100988.59
2019-03-01T10:42:12.613Z,100988.63
2019-03-01T10:44:42.951Z,100997.45
2019-03-01T10:47:13.495Z,100993.90
2019-03-01T10:49:43.611Z,100991.59
2019-03-01T10:52:13.375Z,100995.50
2019-03-01T10:54:43.160Z,100994.71
2019-03-01T10:57:12.776Z,100998.55
2019-03-01T10:59:43.734Z,101002.21
2019-03-01T11:02:14.561Z,101002.64
2019-03-01T11:04:44.213Z,100991.33
2019-03-01T11:07:15.243Z,101006.67
2019-03-01T11:09:46.503Z,101009.48
2019-03-01T11:12:17.238Z,101007.09
2019-03-01T11:14:47.642Z,101010.98
2019-03-01T11:17:18.517Z,101017.39
2019-03-01T11:19:49.181Z,101015.82
2019-03-01T11:22:18.829Z,101018.44
2019-03-01T11:24:50.009Z,101015.05
2019-03-01T11:27:19.754Z,101019.81
2019-03-01T11:29:51.507Z,101024.05
2019-03-01T11:32:21.154Z,101032.56
2019-03-01T11:34:51.854Z,101022.58
2019-03-01T11:37:21.534Z,101029.57
2019-03-01T11:39:51.631Z,101036.17
2019-03-01T11:42:22.009Z,101035.96
2019-03-01T11:44:51.789Z,101033.42
2019-03-01T11:47:21.528Z,101036.02
2019-03-01T11:49:51.148Z,101035.53
2019-03-01T11:52:20.793Z,101038.25
2019-03-01T11:54:51.464Z,101033.27
2019-03-01T11:57:21.248Z,101038.64
2019-03-01T11:59:51.609Z,101038.34
2019-03-01T12:02:21.900Z,101057.38
2019-03-01T12:04:51.516Z,101050.14
2019-03-01T12:07:21.162Z,101061.44
2019-03-01T12:09:50.776Z,101062.30
2019-03-01T12:12:20.760Z,101062.48
2019-03-01T12:14:50.552Z,101058.52
2019-03-01T12:17:21.001Z,101061.48
2019-03-01T12:19:50.612Z,101060.13
2019-03-01T12:22:20.355Z,101068.25
2019-03-01T12:24:49.979Z,101069.36
2019-03-01T12:27:20.064Z,101070.72
2019-03-01T12:29:49.825Z,101078.61
2019-03-01T12:32:19.557Z,101074.73
2019-03-01T12:34:49.449Z,101078.83
2019-03-01T12:37:19.281Z,101074.20
2019-03-01T12:39:49.254Z,101080.03
2019-03-01T12:42:18.875Z,101081.31
2019-03-01T12:44:48.544Z,101082.05
2019-03-01T12:47:18.192Z,101082.75
2019-03-01T12:49:47.819Z,101079.58
2019-03-01T12:52:17.476Z,101084.84
2019-03-01T12:54:47.087Z,101086.18
2019-03-01T12:57:16.733Z,101087.34
2019-03-01T12:59:46.611Z,101078.09
2019-03-01T13:02:16.234Z,101081.75
2019-03-01T13:04:45.854Z,101086.34
2019-03-01T13:07:15.596Z,101088.80
2019-03-01T13:09:45.335Z,101096.18
2019-03-01T13:12:15.239Z,101095.22
2019-03-01T13:14:44.905Z,101098.98
2019-03-01T13:17:14.524Z,101100.38
2019-03-01T13:19:44.162Z,101104.23
2019-03-01T13:22:13.839Z,101097.09
2019-03-01T13:24:43.469Z,101103.31
2019-03-01T13:27:14.160Z,101105.82
2019-03-01T13:29:45.630Z,101106.23
2019-03-01T13:32:15.426Z,101119.25
2019-03-01T13:34:45.805Z,101119.59
2019-03-01T13:37:20.132Z,101120.03
2019-03-01T13:39:48.626Z,101120.55
2019-03-01T13:42:19.341Z,101116.70
2019-03-01T13:44:49.127Z,101118.00
2019-03-01T13:47:18.751Z,101120.42
2019-03-01T13:49:48.435Z,101119.50
2019-03-01T13:52:18.260Z,101120.89
2019-03-01T13:54:47.981Z,101124.45
2019-03-01T13:57:17.605Z,101136.16
2019-03-01T13:59:47.730Z,101143.48
2019-03-01T14:02:18.483Z,101143.77
2019-03-01T14:04:48.191Z,101149.56
2019-03-01T14:07:17.972Z,101149.70
2019-03-01T14:09:47.612Z,101142.07
2019-03-01T14:12:17.370Z,101144.19
2019-03-01T14:14:47.675Z,101132.88
2019-03-01T14:17:17.467Z,101135.56
2019-03-01T14:19:47.207Z,101138.00
2019-03-01T14:22:16.870Z,101134.09
2019-03-01T14:24:46.959Z,101139.57
2019-03-01T14:27:16.756Z,101135.19
2019-03-01T14:29:52.507Z,101139.13
2019-03-01T14:32:20.921Z,101149.12
2019-03-01T14:34:49.872Z,101153.94
2019-03-01T14:37:19.607Z,101155.59
2019-03-01T14:39:49.482Z,101161.39
2019-03-01T14:42:19.115Z,101162.36
2019-03-01T14:44:50.342Z,101153.91
2019-03-01T14:47:19.957Z,101155.95
2019-03-01T14:49:49.847Z,101154.05
2019-03-01T14:52:21.371Z,101151.84
2019-03-01T14:54:50.814Z,101152.88
2019-03-01T14:57:23.755Z,101154.06
2019-03-01T14:59:56.944Z,101163.66
2019-03-01T15:02:32.370Z,101171.34
2019-03-01T15:05:05.595Z,101168.62
2019-03-01T15:07:36.296Z,101172.28
2019-03-01T15:10:12.357Z,101169.27
2019-03-01T15:12:43.115Z,101175.52
2019-03-01T15:15:13.982Z,101171.22
2019-03-01T15:17:44.639Z,101168.98
2019-03-01T15:20:17.264Z,101173.80
2019-03-01T15:22:48.712Z,101178.63
2019-03-01T15:25:18.316Z,101186.66
2019-03-01T15:27:47.974Z,101190.27
2019-03-01T15:30:19.022Z,101187.18
2019-03-01T15:32:48.628Z,101185.86
2019-03-01T15:35:18.332Z,101192.22
2019-03-01T15:37:47.955Z,101196.25
2019-03-01T15:40:17.651Z,101201.08
2019-03-01T15:42:47.309Z,101199.14
2019-03-01T15:45:16.920Z,101196.67
2019-03-01T15:47:46.557Z,101194.59
2019-03-01T15:50:16.299Z,101195.91
2019-03-01T15:52:49.659Z,101209.52
2019-03-01T15:55:17.303Z,101215.61
2019-03-01T15:57:47.098Z,101222.12
2019-03-01T16:00:25.692Z,101225.63
2019-03-01T16:02:54.102Z,101236.25
2019-03-01T16:05:23.762Z,101227.59
2019-03-01T16:07:53.463Z,101239.43
2019-03-01T16:10:23.121Z,101235.36
2019-03-01T16:12:52.843Z,101239.65
2019-03-01T16:15:22.582Z,101243.09
2019-03-01T16:17:52.444Z,101249.88
2019-03-01T16:20:25.144Z,101255.78
2019-03-01T16:22:54.033Z,101259.18
2019-03-01T16:25:25.305Z,101264.28
2019-03-01T16:27:55.179Z,101271.86
2019-03-01T16:30:25.451Z,101272.70
2019-03-01T16:32:55.251Z,101275.70
2019-03-01T16:35:25.760Z,101284.16
2019-03-01T16:37:57.796Z,101285.86
2019-03-01T16:40:28.375Z,101288.41
2019-03-01T16:42:59.588Z,101288.02
2019-03-01T16:45:29.216Z,101290.53
2019-03-01T16:48:00.838Z,101285.89
2019-03-01T16:50:30.230Z,101296.37
2019-03-01T16:53:04.592Z,101294.72
2019-03-01T16:55:34.391Z,101300.63
2019-03-01T16:58:07.475Z,101306.06
2019-03-01T17:00:35.475Z,101312.80
2019-03-01T17:03:10.239Z,101312.80
2019-03-01T17:05:39.850Z,101315.34
2019-03-01T17:08:11.761Z,101314.92
2019-03-01T17:10:42.610Z,101318.27
2019-03-01T17:13:12.234Z,101322.88
2019-03-01T17:15:45.594Z,101317.85
2019-03-01T17:18:15.984Z,101309.47
2019-03-01T17:20:45.871Z,101311.57
2019-03-01T17:23:16.019Z,101311.59
2019-03-01T17:25:47.716Z,101312.91
2019-03-01T17:28:22.626Z,101312.52
2019-03-01T17:30:50.866Z,101310.04
2019-03-01T17:33:20.375Z,101315.90
2019-03-01T17:35:52.138Z,101314.64
2019-03-01T17:38:23.388Z,101312.13
2019-03-01T17:40:53.393Z,101313.38
2019-03-01T17:43:23.017Z,101323.02
2019-03-01T17:45:54.427Z,101317.16
2019-03-01T17:48:25.056Z,101311.30
2019-03-01T17:50:54.695Z,101313.41
2019-03-01T17:53:24.320Z,101315.11
2019-03-01T17:55:54.668Z,101316.39
2019-03-01T17:58:24.317Z,101307.69
2019-03-01T18:00:53.949Z,101306.47
2019-03-01T18:03:23.606Z,101311.09
2019-03-01T18:05:55.484Z,101310.30
2019-03-01T18:08:25.238Z,101309.95
2019-03-01T18:10:56.692Z,101305.00
2019-03-01T18:13:26.314Z,101307.13
2019-03-01T18:15:56.225Z,101312.13
2019-03-01T18:18:26.066Z,101307.95
2019-03-01T18:20:55.694Z,101313.80
2019-03-01T18:23:25.584Z,101317.97
2019-03-01T18:25:55.420Z,101323.77
2019-03-01T18:28:28.322Z,101317.09
2019-03-01T18:30:58.940Z,101325.84
2019-03-01T18:33:28.914Z,101333.77
2019-03-01T18:35:59.423Z,101343.39
2019-03-01T18:38:31.335Z,101342.11
2019-03-01T18:41:02.829Z,101352.52
2019-03-01T18:43:32.482Z,101352.11
2019-03-01T18:46:02.260Z,101356.70
2019-03-01T18:48:33.643Z,101359.60
2019-03-01T18:51:08.513Z,101362.95
2019-03-01T18:53:38.635Z,101365.88
2019-03-01T18:56:08.399Z,101365.02
2019-03-01T18:58:38.121Z,101367.53
2019-03-01T19:01:10.870Z,101371.70
2019-03-01T19:03:41.487Z,101376.30
2019-03-01T19:06:16.281Z,101373.38
2019-03-01T19:08:45.003Z,101373.77
2019-03-01T19:11:14.609Z,101372.11
2019-03-01T19:13:44.271Z,101369.19
2019-03-01T19:16:14.260Z,101377.55
2019-03-01T19:18:43.903Z,101372.98
2019-03-01T19:21:13.968Z,101375.38
2019-03-01T19:23:45.043Z,101379.53
2019-03-01T19:26:14.663Z,101382.88
2019-03-01T19:28:45.914Z,101380.40
2019-03-01T19:31:15.635Z,101387.93
2019-03-01T19:33:45.262Z,101388.38
2019-03-01T19:36:15.362Z,101390.05
2019-03-01T19:38:46.456Z,101395.48
2019-03-01T19:41:20.023Z,101393.81
2019-03-01T19:43:55.568Z,101395.09
2019-03-01T19:46:20.329Z,101388.39
2019-03-01T19:48:49.948Z,101391.39
2019-03-01T19:51:19.408Z,101393.04
2019-03-01T19:53:49.084Z,101403.51
2019-03-01T19:56:18.962Z,101403.09
2019-03-01T19:58:50.040Z,101400.16
2019-03-01T20:01:19.773Z,101399.74
2019-03-01T20:03:49.575Z,101407.27
2019-03-01T20:06:19.205Z,101406.44
2019-03-01T20:08:49.073Z,101414.39
2019-03-01T20:11:19.483Z,101419.44
2019-03-01T20:13:50.551Z,101415.67
2019-03-01T20:16:22.584Z,101413.58
2019-03-01T20:18:52.487Z,101419.03
2019-03-01T20:21:22.187Z,101414.87
2019-03-01T20:23:52.000Z,101421.14
2019-03-01T20:26:23.529Z,101413.18
2019-03-01T20:28:53.064Z,101416.55
2019-03-01T20:31:23.862Z,101419.89
2019-03-01T20:33:53.562Z,101421.16
2019-03-01T20:36:23.195Z,101418.62
2019-03-01T20:38:53.151Z,101416.05
2019-03-01T20:41:22.807Z,101420.19
2019-03-01T20:43:53.973Z,101422.30
2019-03-01T20:46:24.497Z,101425.25
2019-03-01T20:48:54.279Z,101423.99
2019-03-01T20:51:26.885Z,101421.52
2019-03-01T20:53:55.399Z,101425.28
2019-03-01T20:56:25.211Z,101427.78
2019-03-01T20:58:54.821Z,101429.89
2019-03-01T21:01:24.586Z,101429.48
2019-03-01T21:03:54.212Z,101432.44
2019-03-01T21:06:24.393Z,101431.59
2019-03-01T21:08:54.974Z,101429.52
2019-03-01T21:11:25.499Z,101434.13
2019-03-01T21:13:56.206Z,101437.05
2019-03-01T21:16:25.882Z,101437.50
2019-03-01T21:18:55.781Z,101442.49
2019-03-01T21:21:28.859Z,101447.93
2019-03-01T21:23:58.527Z,101445.42
2019-03-01T21:26:28.156Z,101446.69
2019-03-01T21:28:58.983Z,101446.72
2019-03-01T21:31:31.802Z,101446.73
2019-03-01T21:34:02.730Z,101445.90
2019-03-01T21:36:33.808Z,101445.50
2019-03-01T21:39:04.829Z,101442.98
2019-03-01T21:41:34.824Z,101452.17
2019-03-01T21:44:10.120Z,101450.48
2019-03-01T21:46:35.840Z,101455.52
2019-03-01T21:49:05.535Z,101455.53
2019-03-01T21:51:35.480Z,101465.56
2019-03-01T21:54:26.184Z,101467.68
2019-03-01T21:56:57.060Z,101473.95
2019-03-01T21:59:26.954Z,101464.74
2019-03-01T22:01:57.002Z,101466.00
2019-03-01T22:04:26.612Z,101468.50
2019-03-01T22:07:01.763Z,101467.69
2019-03-01T22:09:28.423Z,101472.70
2019-03-01T22:11:58.236Z,101482.77
2019-03-01T22:14:29.174Z,101475.64
2019-03-01T22:16:59.089Z,101474.44
2019-03-01T22:19:30.520Z,101474.45
2019-03-01T22:22:00.172Z,101474.45
2019-03-01T22:24:29.862Z,101477.83
2019-03-01T22:26:59.483Z,101468.23
2019-03-01T22:29:29.271Z,101469.47
2019-03-01T22:31:59.060Z,101471.16
2019-03-01T22:34:31.088Z,101467.39
2019-03-01T22:36:59.998Z,101465.69
2019-03-01T22:39:29.772Z,101471.11
2019-03-01T22:41:59.400Z,101476.48
2019-03-01T22:44:29.135Z,101475.64
2019-03-01T22:47:00.727Z,101484.36
2019-03-01T22:49:31.730Z,101477.25
2019-03-01T22:52:02.261Z,101486.84
2019-03-01T22:54:31.930Z,101491.41
2019-03-01T22:57:01.565Z,101492.23
2019-03-01T22:59:31.220Z,101496.43
2019-03-01T23:02:04.472Z,101493.95
2019-03-01T23:04:33.703Z,101490.18
2019-03-01T23:07:03.342Z,101490.56
2019-03-01T23:09:33.062Z,101495.92
2019-03-01T23:12:04.709Z,101500.47
2019-03-01T23:14:35.080Z,101499.61
2019-03-01T23:17:04.852Z,101500.39
2019-03-01T23:19:35.115Z,101500.80
2019-03-01T23:22:07.566Z,101502.42
2019-03-01T23:24:37.481Z,101502.83
2019-03-01T23:27:07.603Z,101505.29
2019-03-01T23:29:37.345Z,101501.09
2019-03-01T23:32:07.029Z,101498.95
2019-03-01T23:34:38.893Z,101505.20
2019-03-01T23:37:08.490Z,101505.97
2019-03-01T23:39:38.136Z,101507.16
2019-03-01T23:42:08.131Z,101507.95
2019-03-01T23:44:38.669Z,101505.03
2019-03-01T23:47:09.268Z,101504.30
2019-03-01T23:49:39.155Z,101508.08
2019-03-01T23:52:08.904Z,101505.95
2019-03-01T23:54:40.713Z,101513.39
2019-03-01T23:57:10.326Z,101514.59
2019-03-01T23:59:39.962Z,101508.27
